Time;durP1;ratioP1;P1;durP2;ratioP2;P2;SDS_P1;SDS_P2;PMS_P1;PMS_P2;Temp;Humidity;BMP_temperature;BMP_pressure;BME280_temperature;BME280_humidity;BME280_pressure;Samples;Min_cycle;Max_cycle;Signal;HPM_P1;HPM_P2
2022/06/14 00:03:10;;;;;;;;;;;24.70;93.30;;;;;;5053650;28;20012;-88
2022/06/14 00:05:36;;;;;;;;;;;24.70;93.30;;;;;;5054132;28;19992;-93
2022/06/14 00:08:02;;;;;;;;;;;24.80;93.50;;;;;;5052896;28;19940;-90
2022/06/14 00:10:28;;;;;;;;;;;24.70;93.70;;;;;;5054872;28;19912;-94
2022/06/14 00:12:53;;;;;;;;;;;24.70;93.80;;;;;;5052968;28;20362;-94
2022/06/14 00:15:19;;;;;;;;;;;24.70;94.00;;;;;;5054532;28;19905;-95
2022/06/14 00:17:45;;;;;;;;;;;24.60;94.20;;;;;;5054253;28;19919;-92
2022/06/14 00:20:11;;;;;;;;;;;24.60;94.20;;;;;;5053620;28;19911;-90
2022/06/14 00:22:37;;;;;;;;;;;24.60;94.40;;;;;;5054309;28;19908;-92
2022/06/14 00:25:03;;;;;;;;;;;24.60;94.70;;;;;;5058990;28;19924;-92
2022/06/14 00:27:28;;;;;;;;;;;24.50;95.00;;;;;;5074720;28;19904;-94
2022/06/14 00:29:54;;;;;;;;;;;24.40;95.20;;;;;;5055491;28;20359;-93
2022/06/14 00:32:19;;;;;;;;;;;24.40;95.30;;;;;;5053465;28;19905;-93
2022/06/14 00:34:45;;;;;;;;;;;24.40;95.50;;;;;;5053692;28;19908;-93
2022/06/14 00:37:13;;;;;;;;;;;24.30;95.60;;;;;;5053127;28;19912;-93
2022/06/14 00:39:40;;;;;;;;;;;24.30;95.80;;;;;;5052916;28;19904;-94
2022/06/14 00:42:06;;;;;;;;;;;24.20;96.20;;;;;;5052667;28;19911;-89
2022/06/14 00:44:31;;;;;;;;;;;24.20;96.30;;;;;;5054375;28;19968;-89
2022/06/14 00:47:11;;;;;;;;;;;24.20;96.10;;;;;;5074032;28;19915;-93
2022/06/14 00:49:46;;;;;;;;;;;24.10;96.40;;;;;;5072566;28;19912;-92
2022/06/14 00:52:24;;;;;;;;;;;24.20;96.50;;;;;;5052831;28;19908;-93
2022/06/14 00:54:53;;;;;;;;;;;24.10;96.50;;;;;;5053706;28;19915;-94
2022/06/14 00:57:24;;;;;;;;;;;24.00;97.10;;;;;;5052338;28;20371;-90
2022/06/14 00:59:53;;;;;;;;;;;24.00;96.90;;;;;;5053176;28;19916;-94
2022/06/14 01:02:19;;;;;;;;;;;23.90;97.20;;;;;;5053978;28;19911;-94
2022/06/14 01:04:48;;;;;;;;;;;23.90;97.60;;;;;;5052591;28;19901;-93
2022/06/14 01:07:13;;;;;;;;;;;23.80;97.30;;;;;;5053649;28;20011;-92
2022/06/14 01:09:42;;;;;;;;;;;23.80;97.20;;;;;;5055353;28;19952;-93
2022/06/14 01:12:10;;;;;;;;;;;23.80;97.60;;;;;;5051445;28;19911;-93
2022/06/14 01:14:54;;;;;;;;;;;23.80;98.00;;;;;;5054753;28;19912;-93
2022/06/14 01:17:20;;;;;;;;;;;23.70;98.10;;;;;;5053640;28;19913;-94
2022/06/14 01:19:45;;;;;;;;;;;23.70;98.30;;;;;;5054041;28;19905;-94
2022/06/14 01:22:11;;;;;;;;;;;23.60;98.70;;;;;;5053173;28;19912;-92
2022/06/14 01:24:38;;;;;;;;;;;23.60;99.00;;;;;;5052256;28;21330;-92
2022/06/14 01:27:08;;;;;;;;;;;23.50;99.00;;;;;;5053666;28;19962;-93
2022/06/14 01:29:35;;;;;;;;;;;23.50;99.40;;;;;;5054170;28;19963;-93
2022/06/14 01:32:02;;;;;;;;;;;23.40;99.70;;;;;;5051363;28;19912;-92
2022/06/14 01:34:30;;;;;;;;;;;23.40;99.90;;;;;;5053528;28;19904;-95
2022/06/14 01:36:57;;;;;;;;;;;23.40;99.80;;;;;;5052201;28;19904;-93
2022/06/14 01:39:23;;;;;;;;;;;23.40;99.90;;;;;;5052278;28;19905;-95
2022/06/14 01:41:58;;;;;;;;;;;23.30;99.90;;;;;;5055289;28;19904;-91
2022/06/14 01:44:23;;;;;;;;;;;23.30;99.90;;;;;;5055216;28;19956;-84
2022/06/14 01:47:03;;;;;;;;;;;23.30;99.90;;;;;;5054993;28;20022;-85
2022/06/14 01:52:32;;;;;;;;;;;23.20;99.90;;;;;;5051068;28;19912;-85
2022/06/14 01:55:15;;;;;;;;;;;23.10;99.90;;;;;;5054535;28;19979;-85
2022/06/14 01:58:04;;;;;;;;;;;23.10;99.90;;;;;;5059140;28;19974;-85
2022/06/14 02:00:43;;;;;;;;;;;23.10;99.90;;;;;;5046723;28;19916;-85
2022/06/14 02:06:12;;;;;;;;;;;22.80;99.90;;;;;;5054125;28;19936;-82
2022/06/14 02:08:47;;;;;;;;;;;22.70;99.90;;;;;;5054254;28;19908;-85
2022/06/14 02:11:20;;;;;;;;;;;22.70;99.90;;;;;;5054289;28;19909;-85
2022/06/14 02:13:50;;;;;;;;;;;22.60;99.90;;;;;;5054728;28;19905;-85
2022/06/14 02:16:36;;;;;;;;;;;22.60;99.90;;;;;;5048409;28;19905;-84
2022/06/14 02:19:08;;;;;;;;;;;22.50;99.90;;;;;;5044987;28;19912;-84
2022/06/14 02:21:42;;;;;;;;;;;22.50;99.90;;;;;;5052904;28;20371;-84
2022/06/14 02:24:11;;;;;;;;;;;22.50;99.90;;;;;;5053928;28;20405;-84
2022/06/14 02:26:39;;;;;;;;;;;22.40;99.90;;;;;;5053318;28;19909;-83
2022/06/14 02:29:13;;;;;;;;;;;22.40;99.90;;;;;;5052716;28;20272;-84
2022/06/14 02:31:44;;;;;;;;;;;22.40;99.90;;;;;;5050885;28;19963;-84
2022/06/14 02:34:16;;;;;;;;;;;22.40;99.90;;;;;;5053635;28;20036;-84
2022/06/14 02:36:54;;;;;;;;;;;22.40;99.90;;;;;;5052615;28;19905;-85
2022/06/14 02:39:25;;;;;;;;;;;22.40;99.90;;;;;;5068946;28;20397;-85
2022/06/14 02:41:54;;;;;;;;;;;22.40;99.90;;;;;;5051759;28;19909;-84
2022/06/14 02:44:23;;;;;;;;;;;22.40;99.90;;;;;;5051720;28;20267;-84
2022/06/14 02:46:48;;;;;;;;;;;22.30;99.90;;;;;;5053638;28;19974;-83
2022/06/14 02:49:17;;;;;;;;;;;22.30;99.90;;;;;;5053382;28;20351;-84
2022/06/14 02:51:50;;;;;;;;;;;22.20;99.90;;;;;;5050338;28;20271;-85
2022/06/14 02:54:20;;;;;;;;;;;22.20;99.90;;;;;;5051433;28;20324;-85
2022/06/14 02:56:53;;;;;;;;;;;22.20;99.90;;;;;;5052121;28;19904;-85
2022/06/14 02:59:19;;;;;;;;;;;22.20;99.90;;;;;;5052357;28;19916;-84
2022/06/14 03:02:08;;;;;;;;;;;22.20;99.90;;;;;;5052195;28;19992;-86
2022/06/14 03:04:50;;;;;;;;;;;22.20;99.90;;;;;;5052373;28;19944;-85
2022/06/14 03:07:24;;;;;;;;;;;22.20;99.90;;;;;;5053221;28;19904;-85
2022/06/14 03:09:51;;;;;;;;;;;22.20;99.90;;;;;;5046214;28;19908;-85
2022/06/14 03:12:35;;;;;;;;;;;22.30;99.90;;;;;;5052210;28;20087;-85
2022/06/14 03:15:10;;;;;;;;;;;22.20;99.90;;;;;;5050950;28;19944;-85
2022/06/14 03:17:38;;;;;;;;;;;22.30;99.90;;;;;;5037186;28;20269;-85
2022/06/14 03:20:06;;;;;;;;;;;22.20;99.90;;;;;;5051211;28;19927;-84
2022/06/14 03:22:41;;;;;;;;;;;22.30;99.90;;;;;;5053162;28;19991;-84
2022/06/14 03:25:15;;;;;;;;;;;22.30;99.90;;;;;;5050823;28;19915;-86
2022/06/14 03:27:47;;;;;;;;;;;22.30;99.90;;;;;;5051231;28;19905;-85
2022/06/14 03:30:16;;;;;;;;;;;22.40;99.90;;;;;;5056285;28;19952;-84
2022/06/14 03:32:53;;;;;;;;;;;22.40;99.90;;;;;;5050286;28;19995;-85
2022/06/14 03:35:22;;;;;;;;;;;22.40;99.90;;;;;;5052179;28;20382;-85
2022/06/14 03:37:47;;;;;;;;;;;22.40;99.90;;;;;;5051702;28;19909;-85
2022/06/14 03:40:15;;;;;;;;;;;22.40;99.90;;;;;;5050741;28;19904;-86
2022/06/14 03:42:41;;;;;;;;;;;22.40;99.90;;;;;;5052885;28;19904;-84
2022/06/14 03:45:09;;;;;;;;;;;22.40;99.90;;;;;;5051465;28;20440;-84
2022/06/14 03:47:35;;;;;;;;;;;22.40;99.90;;;;;;5052871;28;20287;-83
2022/06/14 03:50:06;;;;;;;;;;;22.30;99.90;;;;;;5052388;28;20347;-83
2022/06/14 03:52:47;;;;;;;;;;;22.20;99.90;;;;;;5051288;28;19948;-82
2022/06/14 03:55:15;;;;;;;;;;;22.20;99.90;;;;;;5052452;28;19905;-82
2022/06/14 03:58:01;;;;;;;;;;;22.10;99.90;;;;;;5050039;28;20486;-83
2022/06/14 04:00:32;;;;;;;;;;;22.20;99.90;;;;;;5060718;28;19925;-81
2022/06/14 04:03:16;;;;;;;;;;;22.00;99.90;;;;;;5038364;28;20007;-83
2022/06/14 04:06:01;;;;;;;;;;;21.40;99.90;;;;;;5051694;28;20279;-82
2022/06/14 04:08:49;;;;;;;;;;;20.90;99.90;;;;;;5050181;28;19958;-83
2022/06/14 04:11:33;;;;;;;;;;;20.60;99.90;;;;;;5050722;28;19912;-83
2022/06/14 04:14:34;;;;;;;;;;;20.40;99.90;;;;;;5050879;28;19905;-84
2022/06/14 04:16:59;;;;;;;;;;;20.20;99.90;;;;;;5012114;28;20093;-84
2022/06/14 04:19:43;;;;;;;;;;;20.10;99.90;;;;;;5047345;28;19983;-85
2022/06/14 04:22:09;;;;;;;;;;;20.10;99.90;;;;;;5050867;28;19911;-83
2022/06/14 04:24:56;;;;;;;;;;;20.10;99.90;;;;;;5051658;28;19905;-83
2022/06/14 04:27:28;;;;;;;;;;;20.10;99.90;;;;;;5051068;28;20268;-84
2022/06/14 04:30:03;;;;;;;;;;;20.20;99.90;;;;;;5051628;28;19909;-84
2022/06/14 04:32:47;;;;;;;;;;;20.30;99.90;;;;;;5050835;28;20494;-83
2022/06/14 04:35:17;;;;;;;;;;;20.40;99.90;;;;;;5049256;28;19988;-84
2022/06/14 04:38:00;;;;;;;;;;;20.40;99.90;;;;;;5050571;28;20279;-84
2022/06/14 04:40:29;;;;;;;;;;;20.50;99.90;;;;;;5051782;28;19930;-84
2022/06/14 04:43:04;;;;;;;;;;;20.60;99.90;;;;;;5044268;28;20007;-84
2022/06/14 04:45:35;;;;;;;;;;;20.60;99.90;;;;;;5041828;28;19905;-84
2022/06/14 04:48:07;;;;;;;;;;;20.60;99.90;;;;;;5043624;28;19901;-84
2022/06/14 04:50:44;;;;;;;;;;;20.60;99.90;;;;;;5048600;28;19910;-85
2022/06/14 04:53:25;;;;;;;;;;;20.50;99.90;;;;;;5051628;28;19904;-84
2022/06/14 04:56:01;;;;;;;;;;;20.50;99.90;;;;;;5046370;28;19908;-84
2022/06/14 04:58:39;;;;;;;;;;;20.60;99.90;;;;;;5051479;28;19917;-83
2022/06/14 05:01:10;;;;;;;;;;;20.60;99.90;;;;;;5050174;28;19917;-82
2022/06/14 05:03:42;;;;;;;;;;;20.70;99.90;;;;;;5051293;28;19934;-83
2022/06/14 05:06:10;;;;;;;;;;;20.80;99.90;;;;;;5050000;28;19909;-84
2022/06/14 05:08:42;;;;;;;;;;;20.90;99.90;;;;;;5049305;28;19904;-83
2022/06/14 05:11:11;;;;;;;;;;;21.00;99.90;;;;;;5051136;28;19905;-85
2022/06/14 05:13:41;;;;;;;;;;;21.10;99.90;;;;;;5049650;28;19905;-82
2022/06/14 05:16:18;;;;;;;;;;;21.20;99.90;;;;;;5050838;28;19909;-84
2022/06/14 05:18:43;;;;;;;;;;;21.10;99.90;;;;;;5049977;28;19913;-86
2022/06/14 05:21:21;;;;;;;;;;;21.10;99.90;;;;;;5049976;28;19912;-83
2022/06/14 05:23:51;;;;;;;;;;;21.20;99.90;;;;;;5050205;28;19909;-88
2022/06/14 05:26:29;;;;;;;;;;;21.20;99.90;;;;;;5059608;28;19952;-87
2022/06/14 05:29:17;;;;;;;;;;;21.30;99.90;;;;;;5049543;28;19960;-86
2022/06/14 05:31:49;;;;;;;;;;;21.30;99.90;;;;;;5050920;28;19905;-87
2022/06/14 05:34:17;;;;;;;;;;;21.50;99.90;;;;;;5050266;28;20351;-86
2022/06/14 05:36:54;;;;;;;;;;;21.60;99.90;;;;;;5050113;28;20012;-86
2022/06/14 05:39:40;;;;;;;;;;;21.60;99.90;;;;;;5048115;28;19913;-86
2022/06/14 05:42:12;;;;;;;;;;;21.70;99.90;;;;;;5056518;28;20371;-87
2022/06/14 05:44:41;;;;;;;;;;;21.70;99.90;;;;;;5049874;28;20447;-87
2022/06/14 05:47:14;;;;;;;;;;;21.80;99.90;;;;;;5050599;28;20471;-85
2022/06/14 05:49:46;;;;;;;;;;;21.90;99.90;;;;;;5050379;28;19904;-86
2022/06/14 05:52:12;;;;;;;;;;;21.90;99.90;;;;;;5060384;28;20407;-86
2022/06/14 05:54:40;;;;;;;;;;;21.90;99.90;;;;;;5044368;28;19944;-86
2022/06/14 05:57:11;;;;;;;;;;;22.00;99.90;;;;;;5048127;28;20327;-85
2022/06/14 05:59:49;;;;;;;;;;;22.10;99.90;;;;;;5047720;28;20011;-88
2022/06/14 06:02:19;;;;;;;;;;;22.10;99.90;;;;;;5049913;28;19905;-85
2022/06/14 06:04:58;;;;;;;;;;;22.20;99.90;;;;;;5048289;28;19900;-88
2022/06/14 06:07:25;;;;;;;;;;;22.20;99.90;;;;;;5050764;28;19905;-86
2022/06/14 06:09:55;;;;;;;;;;;22.30;99.90;;;;;;5050019;28;20346;-86
2022/06/14 06:12:31;;;;;;;;;;;22.30;99.90;;;;;;5048609;28;19908;-88
2022/06/14 06:15:02;;;;;;;;;;;22.30;99.90;;;;;;5049311;28;19904;-87
2022/06/14 06:17:36;;;;;;;;;;;22.40;99.90;;;;;;5049416;28;19913;-87
2022/06/14 06:20:13;;;;;;;;;;;22.40;99.90;;;;;;5049249;28;20264;-87
2022/06/14 06:22:47;;;;;;;;;;;22.40;99.90;;;;;;5049586;28;20355;-84
2022/06/14 06:25:15;;;;;;;;;;;22.50;99.90;;;;;;5050243;28;20375;-85
2022/06/14 06:27:49;;;;;;;;;;;22.60;99.90;;;;;;5050195;28;20370;-85
2022/06/14 06:30:17;;;;;;;;;;;22.70;99.90;;;;;;5052758;28;19912;-85
2022/06/14 06:32:43;;;;;;;;;;;22.70;99.60;;;;;;5053089;28;20003;-85
2022/06/14 06:35:10;;;;;;;;;;;22.70;99.90;;;;;;5052463;28;19987;-85
2022/06/14 06:37:46;;;;;;;;;;;22.80;99.90;;;;;;5054274;28;19912;-85
2022/06/14 06:40:16;;;;;;;;;;;22.80;99.20;;;;;;5053441;28;19912;-86
2022/06/14 06:42:46;;;;;;;;;;;22.90;98.80;;;;;;5048104;28;19943;-87
2022/06/14 06:45:17;;;;;;;;;;;23.00;98.30;;;;;;5051925;28;19912;-84
2022/06/14 06:47:51;;;;;;;;;;;23.00;97.90;;;;;;5054024;28;20379;-85
2022/06/14 06:50:22;;;;;;;;;;;23.00;97.90;;;;;;5050826;28;19908;-84
2022/06/14 06:52:53;;;;;;;;;;;23.10;97.30;;;;;;5046076;28;20011;-85
2022/06/14 06:55:38;;;;;;;;;;;23.20;96.60;;;;;;5043155;28;20371;-84
2022/06/14 06:58:08;;;;;;;;;;;23.30;96.40;;;;;;5044390;28;19932;-85
2022/06/14 07:00:35;;;;;;;;;;;23.40;96.60;;;;;;5049334;28;19923;-85
2022/06/14 07:03:24;;;;;;;;;;;23.40;95.00;;;;;;5053068;28;19947;-87
2022/06/14 07:05:51;;;;;;;;;;;23.50;95.30;;;;;;5031517;28;19904;-87
2022/06/14 07:08:20;;;;;;;;;;;23.50;95.20;;;;;;5051319;28;19911;-86
2022/06/14 07:10:50;;;;;;;;;;;23.60;95.00;;;;;;5047246;28;19905;-86
2022/06/14 07:13:28;;;;;;;;;;;23.70;94.10;;;;;;5050339;28;20422;-87
2022/06/14 07:16:09;;;;;;;;;;;23.80;94.50;;;;;;5047351;28;19912;-87
2022/06/14 07:19:00;;;;;;;;;;;23.90;94.70;;;;;;5051298;28;20123;-86
2022/06/14 07:21:31;;;;;;;;;;;24.00;94.20;;;;;;5046125;28;19954;-86
2022/06/14 07:24:00;;;;;;;;;;;24.10;92.40;;;;;;5049942;28;19908;-86
2022/06/14 07:26:32;;;;;;;;;;;24.10;93.30;;;;;;5049970;28;19912;-87
2022/06/14 07:29:16;;;;;;;;;;;24.20;92.30;;;;;;5051197;28;20003;-86
2022/06/14 07:31:44;;;;;;;;;;;24.30;90.90;;;;;;5049469;28;20003;-85
2022/06/14 07:34:11;;;;;;;;;;;24.40;90.90;;;;;;5049617;28;19954;-86
2022/06/14 07:36:36;;;;;;;;;;;24.40;91.70;;;;;;5049147;28;19913;-86
2022/06/14 07:39:17;;;;;;;;;;;24.50;92.20;;;;;;5048827;28;20019;-85
2022/06/14 07:41:51;;;;;;;;;;;24.60;91.50;;;;;;5047836;28;20334;-85
2022/06/14 07:44:16;;;;;;;;;;;24.70;91.30;;;;;;5048987;28;19970;-85
2022/06/14 07:46:58;;;;;;;;;;;24.70;90.60;;;;;;5047359;28;20338;-85
2022/06/14 07:49:34;;;;;;;;;;;24.80;91.20;;;;;;5047728;28;19944;-86
2022/06/14 07:52:10;;;;;;;;;;;24.90;90.80;;;;;;5044766;28;19912;-85
2022/06/14 07:54:50;;;;;;;;;;;24.90;88.90;;;;;;5041982;28;19908;-88
2022/06/14 07:57:19;;;;;;;;;;;24.90;88.60;;;;;;5048674;28;19940;-87
2022/06/14 07:59:52;;;;;;;;;;;24.90;88.40;;;;;;5048228;28;19921;-86
2022/06/14 08:02:33;;;;;;;;;;;24.80;88.50;;;;;;5048890;28;19916;-88
2022/06/14 08:05:04;;;;;;;;;;;24.90;88.20;;;;;;5047034;28;19905;-88
2022/06/14 08:07:31;;;;;;;;;;;24.90;88.90;;;;;;5049243;28;19908;-88
2022/06/14 08:10:05;;;;;;;;;;;25.00;88.50;;;;;;5047026;28;19919;-89
2022/06/14 08:12:37;;;;;;;;;;;25.10;89.10;;;;;;5043302;28;19975;-88
2022/06/14 08:15:29;;;;;;;;;;;25.10;87.70;;;;;;5048210;28;19904;-88
2022/06/14 08:17:59;;;;;;;;;;;25.20;87.60;;;;;;5045016;28;20014;-88
2022/06/14 08:20:26;;;;;;;;;;;25.20;88.60;;;;;;5048341;28;19908;-87
2022/06/14 08:22:57;;;;;;;;;;;25.30;87.60;;;;;;5048806;28;19935;-88
2022/06/14 08:25:25;;;;;;;;;;;25.30;87.20;;;;;;5047669;28;19912;-88
2022/06/14 08:27:53;;;;;;;;;;;25.30;87.60;;;;;;5047169;28;19916;-87
2022/06/14 08:30:33;;;;;;;;;;;25.30;88.20;;;;;;5046635;28;19908;-88
2022/06/14 08:33:04;;;;;;;;;;;25.40;88.20;;;;;;5039484;28;19904;-87
2022/06/14 08:35:50;;;;;;;;;;;25.50;90.00;;;;;;5046446;28;19909;-87
2022/06/14 08:38:18;;;;;;;;;;;25.70;88.20;;;;;;5056503;28;19924;-88
2022/06/14 08:40:44;;;;;;;;;;;25.80;86.80;;;;;;5042546;28;19912;-89
2022/06/14 08:43:11;;;;;;;;;;;25.80;86.40;;;;;;5046750;28;19904;-87
2022/06/14 08:45:48;;;;;;;;;;;25.80;87.70;;;;;;5046516;28;20374;-87
2022/06/14 08:48:27;;;;;;;;;;;25.80;87.40;;;;;;5046569;28;19912;-87
2022/06/14 08:51:09;;;;;;;;;;;25.90;88.80;;;;;;5059119;28;20015;-88
2022/06/14 08:53:37;;;;;;;;;;;26.00;88.20;;;;;;5046621;28;19909;-88
2022/06/14 08:56:09;;;;;;;;;;;26.10;87.00;;;;;;5046729;28;19905;-88
2022/06/14 08:58:42;;;;;;;;;;;26.10;86.10;;;;;;5045313;28;20029;-87
2022/06/14 09:01:27;;;;;;;;;;;26.20;86.50;;;;;;5046429;28;20343;-88
2022/06/14 09:04:05;;;;;;;;;;;26.30;84.70;;;;;;5047378;28;19985;-88
2022/06/14 09:06:39;;;;;;;;;;;26.20;85.80;;;;;;5045998;28;19931;-88
2022/06/14 09:09:13;;;;;;;;;;;26.20;86.80;;;;;;5036778;28;19908;-88
2022/06/14 09:11:39;;;;;;;;;;;26.30;87.90;;;;;;5047829;28;19909;-88
2022/06/14 09:14:23;;;;;;;;;;;26.40;85.30;;;;;;5046165;28;19955;-84
2022/06/14 09:16:56;;;;;;;;;;;26.40;84.00;;;;;;5045964;28;20321;-87
2022/06/14 09:19:28;;;;;;;;;;;26.40;86.60;;;;;;5046164;28;19923;-87
2022/06/14 09:21:56;;;;;;;;;;;26.50;84.80;;;;;;5047368;28;20003;-87
2022/06/14 09:24:48;;;;;;;;;;;26.50;85.30;;;;;;5047303;28;19915;-88
2022/06/14 09:27:32;;;;;;;;;;;26.60;86.30;;;;;;5020292;28;19950;-87
2022/06/14 09:30:03;;;;;;;;;;;26.70;84.90;;;;;;5045253;28;20402;-89
2022/06/14 09:32:29;;;;;;;;;;;26.80;88.40;;;;;;5051940;28;19931;-87
2022/06/14 09:34:54;;;;;;;;;;;26.80;85.60;;;;;;5044762;28;19915;-87
2022/06/14 09:37:37;;;;;;;;;;;26.90;86.70;;;;;;5045953;28;19908;-87
2022/06/14 09:40:21;;;;;;;;;;;27.00;88.10;;;;;;5047204;28;20006;-88
2022/06/14 09:42:47;;;;;;;;;;;27.10;85.90;;;;;;5045602;28;20379;-87
2022/06/14 09:45:32;;;;;;;;;;;27.10;85.60;;;;;;5047051;28;19905;-87
2022/06/14 09:48:16;;;;;;;;;;;27.20;84.90;;;;;;5038748;28;19909;-88
2022/06/14 09:50:42;;;;;;;;;;;27.30;84.50;;;;;;5038689;28;19962;-88
2022/06/14 09:53:22;;;;;;;;;;;27.30;85.10;;;;;;5047254;28;19914;-87
2022/06/14 09:56:11;;;;;;;;;;;27.30;85.10;;;;;;5041492;28;20563;-88
2022/06/14 09:58:37;;;;;;;;;;;27.40;84.80;;;;;;5046255;28;19920;-89
2022/06/14 10:01:10;;;;;;;;;;;27.50;84.40;;;;;;5045909;28;19915;-88
2022/06/14 10:03:48;;;;;;;;;;;27.60;85.50;;;;;;5049014;28;20147;-88
2022/06/14 10:06:32;;;;;;;;;;;27.60;86.60;;;;;;5050984;28;19909;-88
2022/06/14 10:08:59;;;;;;;;;;;27.70;83.40;;;;;;5049192;28;20389;-88
2022/06/14 10:11:36;;;;;;;;;;;27.80;84.20;;;;;;5049603;28;20322;-87
2022/06/14 10:14:21;;;;;;;;;;;27.90;83.40;;;;;;5039750;28;19916;-88
2022/06/14 10:17:06;;;;;;;;;;;27.90;84.70;;;;;;5049190;28;19908;-87
2022/06/14 10:19:51;;;;;;;;;;;28.00;87.50;;;;;;5050340;28;20299;-88
2022/06/14 10:22:26;;;;;;;;;;;28.20;85.10;;;;;;5050497;28;19909;-88
2022/06/14 10:24:52;;;;;;;;;;;28.30;84.80;;;;;;5050371;28;19974;-87
2022/06/14 10:30:08;;;;;;;;;;;28.40;86.40;;;;;;5050540;28;19959;-87
2022/06/14 10:32:33;;;;;;;;;;;28.50;83.00;;;;;;5050696;28;20007;-88
2022/06/14 10:35:07;;;;;;;;;;;28.60;82.70;;;;;;5049688;28;19987;-88
2022/06/14 10:37:59;;;;;;;;;;;28.60;85.50;;;;;;5050959;28;20638;-88
2022/06/14 10:40:24;;;;;;;;;;;28.70;83.80;;;;;;5047000;28;19913;-88
2022/06/14 10:43:03;;;;;;;;;;;28.60;83.60;;;;;;5050450;28;19920;-87
2022/06/14 10:45:40;;;;;;;;;;;28.70;83.50;;;;;;5048135;28;19909;-87
2022/06/14 10:48:25;;;;;;;;;;;28.80;83.30;;;;;;5057657;28;19911;-88
2022/06/14 10:51:16;;;;;;;;;;;28.90;82.90;;;;;;5046261;28;19920;-87
2022/06/14 10:53:45;;;;;;;;;;;29.10;83.80;;;;;;5050098;28;19909;-88
2022/06/14 10:56:19;;;;;;;;;;;29.20;83.80;;;;;;5049924;28;19909;-88
2022/06/14 10:59:04;;;;;;;;;;;29.30;82.20;;;;;;5049592;28;19921;-88
2022/06/14 11:01:50;;;;;;;;;;;29.40;81.90;;;;;;5046530;28;19946;-88
2022/06/14 11:04:27;;;;;;;;;;;29.50;82.60;;;;;;5042044;28;19911;-87
2022/06/14 11:07:02;;;;;;;;;;;29.60;82.00;;;;;;5048869;28;19908;-88
2022/06/14 11:09:28;;;;;;;;;;;29.70;81.40;;;;;;5047923;28;20023;-89
2022/06/14 11:11:59;;;;;;;;;;;29.70;81.20;;;;;;5048588;28;19999;-87
2022/06/14 11:14:45;;;;;;;;;;;29.80;81.60;;;;;;5048757;28;19915;-89
2022/06/14 11:17:22;;;;;;;;;;;29.90;83.40;;;;;;5048902;28;19931;-88
2022/06/14 11:20:00;;;;;;;;;;;30.00;81.50;;;;;;5049074;28;19978;-87
2022/06/14 11:22:35;;;;;;;;;;;30.20;82.90;;;;;;5050107;28;20155;-87
2022/06/14 11:25:10;;;;;;;;;;;30.30;81.60;;;;;;5047749;28;19909;-87
2022/06/14 11:27:42;;;;;;;;;;;30.40;82.10;;;;;;5047862;28;20044;-87
2022/06/14 11:30:26;;;;;;;;;;;30.50;78.20;;;;;;5048003;28;19912;-87
2022/06/14 11:32:51;;;;;;;;;;;30.50;79.70;;;;;;5049723;28;19940;-88
2022/06/14 11:35:17;;;;;;;;;;;30.70;79.60;;;;;;5048971;28;19966;-88
2022/06/14 11:37:57;;;;;;;;;;;30.80;77.10;;;;;;5048344;28;19948;-87
2022/06/14 11:40:25;;;;;;;;;;;30.90;80.10;;;;;;5048318;28;19920;-87
2022/06/14 11:42:54;;;;;;;;;;;31.10;76.20;;;;;;5049256;28;19909;-88
2022/06/14 11:45:27;;;;;;;;;;;31.10;75.60;;;;;;5049055;28;19943;-88
2022/06/14 11:48:03;;;;;;;;;;;31.10;75.50;;;;;;5049410;28;19905;-86
2022/06/14 11:50:48;;;;;;;;;;;31.00;78.10;;;;;;5036299;28;19913;-87
2022/06/14 11:53:24;;;;;;;;;;;31.10;76.10;;;;;;5042064;28;20427;-87
2022/06/14 11:56:11;;;;;;;;;;;31.20;77.10;;;;;;5045383;28;20322;-87
2022/06/14 11:58:39;;;;;;;;;;;31.30;76.50;;;;;;5047927;28;20000;-88
2022/06/14 12:01:23;;;;;;;;;;;31.80;77.30;;;;;;5047980;28;19920;-88
2022/06/14 12:04:01;;;;;;;;;;;33.30;74.80;;;;;;5046538;28;19951;-87
2022/06/14 12:06:46;;;;;;;;;;;37.70;67.70;;;;;;5043706;28;20136;-87
2022/06/14 12:09:17;;;;;;;;;;;41.50;60.60;;;;;;5036886;28;19908;-87
2022/06/14 12:11:49;;;;;;;;;;;42.80;61.40;;;;;;5045779;28;19911;-87
2022/06/14 12:14:36;;;;;;;;;;;44.80;57.80;;;;;;5045743;28;19911;-88
2022/06/14 12:17:16;;;;;;;;;;;46.20;55.10;;;;;;5048347;28;19946;-87
2022/06/14 12:19:43;;;;;;;;;;;47.60;52.40;;;;;;5047441;28;19943;-87
2022/06/14 12:22:28;;;;;;;;;;;48.30;51.10;;;;;;5047550;28;19908;-87
2022/06/14 12:27:57;;;;;;;;;;;49.40;49.30;;;;;;5048338;28;19919;-87
2022/06/14 12:30:24;;;;;;;;;;;50.00;47.60;;;;;;5046992;28;19958;-87
2022/06/14 12:32:58;;;;;;;;;;;50.20;46.50;;;;;;5048038;28;19920;-92
2022/06/14 12:35:26;;;;;;;;;;;50.10;46.10;;;;;;5044757;28;19905;-87
2022/06/14 12:38:02;;;;;;;;;;;47.00;47.00;;;;;;5047620;28;19913;-88
2022/06/14 12:40:42;;;;;;;;;;;47.10;48.70;;;;;;5046737;28;19916;-87
2022/06/14 12:43:12;;;;;;;;;;;47.60;50.80;;;;;;5041115;28;19920;-90
2022/06/14 12:45:43;;;;;;;;;;;49.40;48.20;;;;;;5048730;28;19912;-91
2022/06/14 12:48:29;;;;;;;;;;;51.70;47.90;;;;;;5047350;28;20315;-90
2022/06/14 12:51:09;;;;;;;;;;;53.60;45.40;;;;;;5044677;28;19908;-89
2022/06/14 12:53:38;;;;;;;;;;;55.20;45.00;;;;;;5047261;28;20384;-91
2022/06/14 12:56:13;;;;;;;;;;;55.20;42.20;;;;;;5047762;28;19915;-93
2022/06/14 12:58:41;;;;;;;;;;;54.00;41.60;;;;;;5048063;28;20004;-91
2022/06/14 13:01:27;;;;;;;;;;;54.30;42.40;;;;;;5048511;28;19935;-90
2022/06/14 13:03:55;;;;;;;;;;;53.40;41.80;;;;;;5046434;28;19915;-88
2022/06/14 13:06:23;;;;;;;;;;;52.80;42.90;;;;;;5048629;28;19905;-91
2022/06/14 13:09:02;;;;;;;;;;;51.70;42.90;;;;;;5048473;28;20369;-92
2022/06/14 13:11:46;;;;;;;;;;;50.00;43.70;;;;;;5047118;28;19909;-90
2022/06/14 13:14:32;;;;;;;;;;;49.40;43.60;;;;;;5031624;28;19909;-93
2022/06/14 13:17:17;;;;;;;;;;;50.40;44.70;;;;;;5044989;28;20008;-93
2022/06/14 13:19:43;;;;;;;;;;;51.60;44.70;;;;;;5047531;28;19939;-93
2022/06/14 13:22:42;;;;;;;;;;;52.20;42.00;;;;;;5042932;28;19997;-93
2022/06/14 13:25:34;;;;;;;;;;;52.10;41.20;;;;;;5048089;28;19992;-92
2022/06/14 13:28:15;;;;;;;;;;;51.70;41.30;;;;;;5039334;28;19955;-91
2022/06/14 13:30:41;;;;;;;;;;;50.40;43.40;;;;;;5046124;28;19961;-92
2022/06/14 13:33:09;;;;;;;;;;;49.50;41.50;;;;;;5048041;28;19999;-93
2022/06/14 13:35:53;;;;;;;;;;;47.90;42.60;;;;;;5047625;28;20287;-93
2022/06/14 13:38:22;;;;;;;;;;;46.50;44.60;;;;;;5051272;28;20031;-92
2022/06/14 13:40:52;;;;;;;;;;;46.20;44.50;;;;;;5048576;28;20271;-93
2022/06/14 13:43:27;;;;;;;;;;;45.30;45.30;;;;;;5050444;28;19904;-90
2022/06/14 13:45:59;;;;;;;;;;;45.90;45.30;;;;;;5047945;28;19909;-91
2022/06/14 13:48:38;;;;;;;;;;;46.20;44.90;;;;;;5052374;28;19940;-91
2022/06/14 13:51:22;;;;;;;;;;;45.90;46.10;;;;;;5052581;28;20275;-92
2022/06/14 13:53:51;;;;;;;;;;;46.20;44.70;;;;;;5050591;28;19915;-93
2022/06/14 13:56:22;;;;;;;;;;;45.40;44.60;;;;;;5047813;28;19955;-91
2022/06/14 13:59:11;;;;;;;;;;;45.30;45.80;;;;;;5048712;28;20020;-91
2022/06/14 14:01:40;;;;;;;;;;;45.80;44.80;;;;;;5059265;28;19925;-91
2022/06/14 14:04:15;;;;;;;;;;;45.90;44.50;;;;;;5051796;28;19908;-91
2022/06/14 14:06:46;;;;;;;;;;;45.10;45.30;;;;;;5051133;28;20382;-92
2022/06/14 14:09:18;;;;;;;;;;;41.80;48.40;;;;;;5050896;28;19936;-91
2022/06/14 14:11:46;;;;;;;;;;;39.40;50.80;;;;;;5051429;28;19979;-91
2022/06/14 14:14:30;;;;;;;;;;;38.40;51.60;;;;;;5051929;28;19909;-91
2022/06/14 14:16:56;;;;;;;;;;;38.10;52.60;;;;;;5050407;28;19909;-90
2022/06/14 14:19:24;;;;;;;;;;;38.00;52.00;;;;;;5050865;28;19912;-90
2022/06/14 14:22:07;;;;;;;;;;;35.10;63.30;;;;;;5050228;28;19904;-91
2022/06/14 14:24:40;;;;;;;;;;;34.50;68.40;;;;;;5050821;28;19905;-88
2022/06/14 14:27:18;;;;;;;;;;;33.50;65.60;;;;;;5051515;28;19909;-93
2022/06/14 14:29:46;;;;;;;;;;;33.30;63.20;;;;;;5047158;28;19919;-91
2022/06/14 14:32:28;;;;;;;;;;;33.30;63.80;;;;;;5051204;28;19936;-89
2022/06/14 14:34:56;;;;;;;;;;;33.50;62.60;;;;;;5050923;28;20617;-89
2022/06/14 14:37:25;;;;;;;;;;;33.30;64.40;;;;;;5049996;28;19951;-92
2022/06/14 14:39:59;;;;;;;;;;;32.80;64.90;;;;;;5050432;28;19967;-93
2022/06/14 14:42:25;;;;;;;;;;;33.00;62.80;;;;;;5050068;28;19904;-91
2022/06/14 14:45:11;;;;;;;;;;;33.20;62.30;;;;;;5050954;28;19970;-93
2022/06/14 14:47:42;;;;;;;;;;;33.70;63.30;;;;;;5035912;28;19917;-92
2022/06/14 14:50:15;;;;;;;;;;;33.30;61.50;;;;;;5049077;28;19992;-92
2022/06/14 14:52:45;;;;;;;;;;;32.40;63.20;;;;;;5051641;28;19908;-90
2022/06/14 14:55:30;;;;;;;;;;;32.30;65.20;;;;;;5049966;28;19912;-92
2022/06/14 14:58:00;;;;;;;;;;;32.80;65.20;;;;;;5049912;28;20199;-90
2022/06/14 15:06:11;;;;;;;;;;;31.90;65.50;;;;;;5050149;28;19928;-89
2022/06/14 15:08:41;;;;;;;;;;;32.00;65.00;;;;;;5050914;28;19947;-92
2022/06/14 15:11:06;;;;;;;;;;;32.10;64.20;;;;;;5050812;28;20374;-93
2022/06/14 15:13:32;;;;;;;;;;;32.30;64.70;;;;;;5049477;28;19905;-90